createdAt,value
2023-04-13T00:02:28.220Z,99364.75
2023-04-13T00:04:55.198Z,99426.44
2023-04-13T00:07:22.930Z,99403.72
2023-04-13T00:09:50.926Z,99388.41
2023-04-13T00:12:23.902Z,99416.59
2023-04-13T00:14:50.885Z,99385.34
2023-04-13T00:17:17.913Z,99385.03
2023-04-13T00:19:50.395Z,99400.31
2023-04-13T00:22:18.665Z,99365.63
2023-04-13T00:24:45.986Z,99407.59
2023-04-13T00:27:16.389Z,99412.88
2023-04-13T00:29:43.208Z,99378.22
2023-04-13T00:32:10.122Z,99406.91
2023-04-13T00:34:36.915Z,99380.59
2023-04-13T00:37:07.327Z,99395.38
2023-04-13T00:39:36.989Z,99387.91
2023-04-13T00:42:04.389Z,99407.75
2023-04-13T00:44:36.063Z,99404.56
2023-04-13T00:47:05.317Z,99401.00
2023-04-13T00:49:35.967Z,99384.72
2023-04-13T00:52:03.395Z,99402.69
2023-04-13T00:54:35.965Z,99396.25
2023-04-13T00:57:02.882Z,99393.19
2023-04-13T00:59:32.024Z,99388.59
2023-04-13T01:02:02.351Z,99388.09
2023-04-13T01:04:32.507Z,99386.41
2023-04-13T01:07:12.158Z,99405.06
2023-04-13T01:09:45.502Z,99397.94
2023-04-13T01:12:19.192Z,99376.22
2023-04-13T01:14:58.560Z,99387.28
2023-04-13T01:17:30.633Z,99387.75
2023-04-13T01:20:12.195Z,99383.00
2023-04-13T01:22:48.230Z,99391.16
2023-04-13T01:25:42.635Z,99401.84
2023-04-13T01:28:13.659Z,99385.53
2023-04-13T01:30:40.850Z,99378.91
2023-04-13T01:33:09.782Z,99392.50
2023-04-13T01:35:39.360Z,99408.28
2023-04-13T01:38:09.772Z,99407.59
2023-04-13T01:40:40.819Z,99417.97
2023-04-13T01:43:10.508Z,99435.91
2023-04-13T01:46:14.322Z,99436.78
2023-04-13T01:48:41.285Z,99431.53
2023-04-13T01:51:25.192Z,99443.38
2023-04-13T01:54:12.584Z,99430.81
2023-04-13T01:56:44.198Z,99422.13
2023-04-13T01:59:11.477Z,99454.25
2023-04-13T02:01:41.632Z,99433.00
2023-04-13T02:04:08.804Z,99439.59
2023-04-13T02:06:39.626Z,99481.38
2023-04-13T02:09:08.795Z,99472.88
2023-04-13T02:11:37.882Z,99472.19
2023-04-13T02:14:05.049Z,99475.75
2023-04-13T02:16:34.919Z,99492.53
2023-04-13T02:19:04.230Z,99493.94
2023-04-13T02:21:31.053Z,99492.34
2023-04-13T02:23:58.246Z,99503.41
2023-04-13T02:26:29.336Z,99514.81
2023-04-13T02:28:56.660Z,99509.31
2023-04-13T02:31:25.994Z,99525.09
2023-04-13T02:33:58.963Z,99378.72
2023-04-13T02:36:29.179Z,99526.94
2023-04-13T02:38:58.863Z,99533.19
2023-04-13T02:45:18.263Z,99514.06
2023-04-13T02:47:45.398Z,99550.28
2023-04-13T02:50:16.015Z,99555.00
2023-04-13T02:52:44.166Z,99554.50
2023-04-13T02:55:16.063Z,99526.88
2023-04-13T02:57:43.724Z,99543.00
2023-04-13T03:00:13.424Z,99561.81
2023-04-13T03:02:45.086Z,99544.72
2023-04-13T03:05:13.039Z,99554.56
2023-04-13T03:07:45.561Z,99561.59
2023-04-13T03:10:16.706Z,99561.91
2023-04-13T03:12:46.867Z,99589.34
2023-04-13T03:15:17.499Z,99577.09
2023-04-13T03:17:44.886Z,99601.09
2023-04-13T03:20:13.462Z,99607.03
2023-04-13T03:22:40.625Z,99593.81
2023-04-13T03:25:12.804Z,99604.03
2023-04-13T03:27:42.027Z,99549.78
2023-04-13T03:30:09.354Z,99614.59
2023-04-13T03:32:36.604Z,99609.41
2023-04-13T03:35:09.080Z,99614.75
2023-04-13T03:37:43.120Z,99616.34
2023-04-13T03:40:10.655Z,99618.13
2023-04-13T03:42:40.985Z,99583.66
2023-04-13T03:45:08.463Z,99632.69
2023-04-13T03:47:35.677Z,99639.22
2023-04-13T03:50:04.042Z,99644.63
2023-04-13T03:52:33.290Z,99621.22
2023-04-13T03:55:00.599Z,99654.63
2023-04-13T03:57:27.549Z,99651.19
2023-04-13T03:59:57.292Z,99632.06
2023-04-13T04:02:26.480Z,99663.44
2023-04-13T04:04:56.377Z,99663.84
2023-04-13T04:07:23.690Z,99642.13
2023-04-13T04:09:53.001Z,99673.59
2023-04-13T04:12:24.201Z,99673.16
2023-04-13T04:14:53.879Z,99664.09
2023-04-13T04:17:23.057Z,99665.88
2023-04-13T04:19:50.158Z,99690.06
2023-04-13T04:22:21.595Z,99659.19
2023-04-13T04:24:50.157Z,99697.84
2023-04-13T04:27:22.479Z,99701.44
2023-04-13T04:29:51.997Z,99705.97
2023-04-13T04:32:20.113Z,99705.53
2023-04-13T04:34:47.333Z,99701.97
2023-04-13T04:37:20.778Z,99707.25
2023-04-13T04:39:50.717Z,99713.75
2023-04-13T04:42:18.971Z,99689.19
2023-04-13T04:44:50.258Z,99715.63
2023-04-13T04:47:17.565Z,99710.28
2023-04-13T04:49:44.609Z,99727.25
2023-04-13T04:52:14.819Z,99725.56
2023-04-13T04:54:41.696Z,99718.34
2023-04-13T04:57:12.843Z,99733.84
2023-04-13T04:59:41.856Z,99709.66
2023-04-13T05:02:08.773Z,99736.94
2023-04-13T05:04:44.610Z,99748.03
2023-04-13T05:07:18.191Z,99722.69
2023-04-13T05:09:45.578Z,99676.03
2023-04-13T05:12:16.917Z,99732.00
2023-04-13T05:14:49.930Z,99744.72
2023-04-13T05:17:19.133Z,99747.66
2023-04-13T05:19:47.474Z,99740.38
2023-04-13T05:22:15.721Z,99747.22
2023-04-13T05:24:48.398Z,99757.44
2023-04-13T05:27:20.023Z,99764.56
2023-04-13T05:29:47.847Z,99758.44
2023-04-13T05:32:21.415Z,99603.47
2023-04-13T05:34:48.297Z,99753.19
2023-04-13T05:37:20.261Z,99754.75
2023-04-13T05:39:50.433Z,99773.03
2023-04-13T05:42:29.476Z,99770.69
2023-04-13T05:44:59.548Z,99759.31
2023-04-13T05:49:26.572Z,99767.53
2023-04-13T05:51:32.065Z,99761.53
2023-04-13T05:53:59.350Z,99758.59
2023-04-13T05:56:29.948Z,99779.41
2023-04-13T05:59:02.966Z,99784.19
2023-04-13T06:01:33.883Z,99738.91
2023-04-13T06:04:02.540Z,99797.50
2023-04-13T06:06:30.504Z,99798.50
2023-04-13T06:08:57.667Z,99791.16
2023-04-13T06:11:26.109Z,99748.16
2023-04-13T06:13:53.137Z,99785.09
2023-04-13T06:16:26.996Z,99800.78
2023-04-13T06:18:53.992Z,99826.69
2023-04-13T06:21:20.958Z,99830.75
2023-04-13T06:23:53.827Z,99859.41
2023-04-13T06:26:21.274Z,99835.19
2023-04-13T06:29:08.851Z,99857.44
2023-04-13T06:31:35.990Z,99848.53
2023-04-13T06:34:05.746Z,99849.47
2023-04-13T06:36:33.115Z,99856.09
2023-04-13T06:39:04.068Z,99863.66
2023-04-13T06:41:49.150Z,99864.47
2023-04-13T06:44:24.658Z,99876.31
2023-04-13T06:47:15.940Z,99878.88
2023-04-13T06:51:14.066Z,99881.06
2023-04-13T06:53:52.004Z,99885.28
2023-04-13T06:59:10.648Z,99827.59
2023-04-13T07:04:38.381Z,99897.09
2023-04-13T07:10:07.953Z,99899.66
2023-04-13T07:16:06.936Z,99911.81
2023-04-13T07:18:36.129Z,99930.44
2023-04-13T07:21:02.874Z,99926.25
2023-04-13T07:23:34.912Z,99922.50
2023-04-13T07:26:30.235Z,99930.03
2023-04-13T07:29:01.388Z,99924.91
2023-04-13T07:31:31.933Z,99922.59
2023-04-13T07:34:10.013Z,99934.13
2023-04-13T07:36:37.593Z,99896.25
2023-04-13T07:39:09.336Z,99942.19
2023-04-13T07:41:38.583Z,99944.47
2023-04-13T07:44:07.946Z,99968.31
2023-04-13T07:46:34.945Z,99959.44
2023-04-13T07:49:02.198Z,99945.75
2023-04-13T07:51:30.198Z,99964.56
2023-04-13T07:53:59.628Z,99968.22
2023-04-13T07:56:27.250Z,99986.31
2023-04-13T07:58:54.536Z,99981.66
2023-04-13T08:01:35.051Z,99965.03
2023-04-13T08:04:01.921Z,99824.13
2023-04-13T08:06:31.995Z,99989.03
2023-04-13T08:09:00.070Z,99831.84
2023-04-13T08:11:27.315Z,100005.19
2023-04-13T08:13:54.271Z,100005.84
2023-04-13T08:16:21.556Z,99990.06
2023-04-13T08:18:48.636Z,99985.72
2023-04-13T08:21:17.698Z,100043.34
2023-04-13T08:23:47.605Z,100015.63
2023-04-13T08:26:21.476Z,100039.31
2023-04-13T08:28:53.265Z,100046.59
2023-04-13T08:31:23.481Z,100033.31
2023-04-13T08:33:52.915Z,100053.00
2023-04-13T08:36:22.522Z,100048.09
2023-04-13T08:38:49.699Z,100066.50
2023-04-13T08:41:17.737Z,100027.31
2023-04-13T08:43:47.067Z,100068.72
2023-04-13T08:46:21.394Z,100050.81
2023-04-13T08:48:54.033Z,100062.06
2023-04-13T08:51:26.642Z,100080.31
2023-04-13T08:53:53.769Z,100073.25
2023-04-13T08:56:28.308Z,100088.06
2023-04-13T08:59:07.610Z,100087.88
2023-04-13T09:01:39.827Z,100087.84
2023-04-13T09:04:12.337Z,100102.56
2023-04-13T09:06:43.555Z,100100.88
2023-04-13T09:09:14.709Z,100088.31
2023-04-13T09:11:48.427Z,100116.28
2023-04-13T09:14:20.243Z,100112.38
2023-04-13T09:16:47.719Z,100080.47
2023-04-13T09:19:14.454Z,100127.41
2023-04-13T09:21:45.864Z,100117.50
2023-04-13T09:24:12.911Z,100133.53
2023-04-13T09:26:44.737Z,100137.97
2023-04-13T09:29:16.464Z,100139.69
2023-04-13T09:31:45.167Z,100139.84
2023-04-13T09:34:12.692Z,100150.25
2023-04-13T09:36:49.479Z,100140.03
2023-04-13T09:39:29.296Z,100152.31
2023-04-13T09:42:09.709Z,100149.56
2023-04-13T09:44:38.755Z,100152.75
2023-04-13T09:47:08.729Z,100163.31
2023-04-13T09:49:38.882Z,100168.34
2023-04-13T09:52:26.067Z,100175.75
2023-04-13T09:55:02.070Z,100188.75
2023-04-13T09:57:32.662Z,100199.69
2023-04-13T10:00:02.485Z,100184.84
2023-04-13T10:02:30.539Z,100203.09
2023-04-13T10:04:58.824Z,100201.84
2023-04-13T10:07:31.839Z,100202.19
2023-04-13T10:09:58.881Z,100225.13
2023-04-13T10:12:27.721Z,100213.47
2023-04-13T10:15:06.361Z,100213.19
2023-04-13T10:17:45.219Z,100241.03
2023-04-13T10:20:13.939Z,100234.22
2023-04-13T10:22:45.917Z,100246.34
2023-04-13T10:25:29.100Z,100249.09
2023-04-13T10:28:00.673Z,100255.56
2023-04-13T10:30:27.843Z,100259.16
2023-04-13T10:33:10.044Z,100247.50
2023-04-13T10:35:41.454Z,100260.84
2023-04-13T10:38:12.564Z,100266.50
2023-04-13T10:40:44.589Z,100270.25
2023-04-13T10:43:13.434Z,100281.16
2023-04-13T10:45:40.233Z,100284.38
2023-04-13T10:48:07.585Z,100275.97
2023-04-13T10:50:34.573Z,100294.22
2023-04-13T10:53:05.042Z,100293.09
2023-04-13T10:55:33.221Z,100287.50
2023-04-13T10:58:03.328Z,100300.97
2023-04-13T11:00:45.529Z,100291.06
2023-04-13T11:03:17.242Z,100267.00
2023-04-13T11:05:49.546Z,100287.16
2023-04-13T11:08:22.048Z,100322.53
2023-04-13T11:10:59.050Z,100303.06
2023-04-13T11:13:26.929Z,100333.63
2023-04-13T11:16:03.022Z,100333.97
2023-04-13T11:18:32.602Z,100341.16
2023-04-13T11:20:59.386Z,100345.59
2023-04-13T11:23:36.468Z,100346.94
2023-04-13T11:26:11.692Z,100352.94
2023-04-13T11:28:44.097Z,100344.66
2023-04-13T11:31:12.206Z,100343.25
2023-04-13T11:33:40.546Z,100350.22
2023-04-13T11:36:10.849Z,100346.94
2023-04-13T11:38:39.693Z,100345.88
2023-04-13T11:41:14.932Z,100350.47
2023-04-13T11:43:46.140Z,100347.34
2023-04-13T11:46:15.444Z,100339.94
2023-04-13T11:48:43.236Z,100349.84
2023-04-13T11:51:15.066Z,100300.13
2023-04-13T11:53:41.895Z,100344.47
2023-04-13T11:56:09.132Z,100344.88
2023-04-13T11:58:39.649Z,100354.06
2023-04-13T12:01:13.948Z,100312.25
2023-04-13T12:03:56.979Z,100346.34
2023-04-13T12:06:38.692Z,100354.94
2023-04-13T12:09:13.513Z,100359.81
2023-04-13T12:12:15.978Z,100330.63
2023-04-13T12:19:45.973Z,100366.72
2023-04-13T12:22:14.824Z,100367.72
2023-04-13T12:24:45.465Z,100364.31
2023-04-13T12:27:18.885Z,100355.75
2023-04-13T12:29:47.539Z,100363.69
2023-04-13T12:32:16.223Z,100367.72
2023-04-13T12:34:50.663Z,100365.16
2023-04-13T12:37:21.973Z,100378.44
2023-04-13T12:39:48.925Z,100379.41
2023-04-13T12:42:18.274Z,100369.50
2023-04-13T12:44:45.536Z,100372.06
2023-04-13T12:47:13.358Z,100372.94
2023-04-13T12:49:40.108Z,100391.69
2023-04-13T12:52:07.205Z,100377.47
2023-04-13T12:54:33.910Z,100371.78
2023-04-13T12:57:01.744Z,100387.88
2023-04-13T12:59:31.031Z,100372.00
2023-04-13T13:01:59.942Z,100401.59
2023-04-13T13:04:30.279Z,100394.91
2023-04-13T13:06:56.868Z,100378.59
2023-04-13T13:09:25.881Z,100399.88
2023-04-13T13:11:52.734Z,100392.34
2023-04-13T13:14:22.359Z,100402.09
2023-04-13T13:16:50.251Z,100405.19
2023-04-13T13:19:17.179Z,100406.19
2023-04-13T13:21:43.863Z,100413.31
2023-04-13T13:24:10.516Z,100421.53
2023-04-13T13:26:58.602Z,100428.25
2023-04-13T13:29:28.049Z,100426.59
2023-04-13T13:31:54.825Z,100424.00
2023-04-13T13:34:21.446Z,100425.84
2023-04-13T13:36:48.008Z,100427.94
2023-04-13T13:39:14.661Z,100427.47
2023-04-13T13:41:41.360Z,100421.09
2023-04-13T13:44:08.148Z,100429.16
2023-04-13T13:46:36.640Z,100425.75
2023-04-13T13:49:03.565Z,100425.81
2023-04-13T13:51:32.628Z,100429.38
2023-04-13T13:53:59.579Z,100427.94
2023-04-13T13:56:30.974Z,100413.38
2023-04-13T13:59:00.104Z,100426.69
2023-04-13T14:01:27.477Z,100427.56
2023-04-13T14:03:57.159Z,100418.81
2023-04-13T14:06:26.513Z,100409.41
2023-04-13T14:08:56.292Z,100443.47
2023-04-13T14:11:23.109Z,100430.47
2023-04-13T14:13:49.819Z,100431.84
2023-04-13T14:16:17.279Z,100435.19
2023-04-13T14:18:43.900Z,100446.47
2023-04-13T14:21:15.816Z,100445.72
2023-04-13T14:23:47.397Z,100447.44
2023-04-13T14:26:14.010Z,100454.25
2023-04-13T14:28:40.846Z,100450.75
2023-04-13T14:31:07.565Z,100433.69
2023-04-13T14:33:34.287Z,100459.38
2023-04-13T14:36:01.123Z,100443.72
2023-04-13T14:38:27.779Z,100445.66
2023-04-13T14:40:56.769Z,100450.59
2023-04-13T14:43:23.473Z,100443.06
2023-04-13T14:45:55.143Z,100457.09
2023-04-13T14:48:23.146Z,100457.72
2023-04-13T14:50:52.920Z,100459.34
2023-04-13T14:53:19.598Z,100469.84
2023-04-13T14:55:46.614Z,100413.72
2023-04-13T14:58:13.433Z,100474.78
2023-04-13T15:00:40.277Z,100465.88
2023-04-13T15:03:15.048Z,100477.13
2023-04-13T15:05:45.522Z,100480.34
2023-04-13T15:08:16.723Z,100489.84
2023-04-13T15:10:43.501Z,100486.88
2023-04-13T15:13:10.249Z,100480.34
2023-04-13T15:15:40.559Z,100485.47
2023-04-13T15:18:08.283Z,100483.53
2023-04-13T15:20:39.883Z,100483.88
2023-04-13T15:23:11.070Z,100491.97
2023-04-13T15:25:38.418Z,100488.81
2023-04-13T15:28:05.043Z,100463.59
2023-04-13T15:30:43.742Z,100480.28
2023-04-13T15:33:14.637Z,100504.44
2023-04-13T15:35:45.727Z,100494.00
2023-04-13T15:38:12.355Z,100465.03
2023-04-13T15:40:39.169Z,100492.94
2023-04-13T15:43:08.548Z,100494.25
2023-04-13T15:45:35.500Z,100482.13
2023-04-13T15:48:05.274Z,100493.78
2023-04-13T15:50:39.236Z,100502.06
2023-04-13T15:53:10.699Z,100483.09
2023-04-13T15:55:40.124Z,100505.69
2023-04-13T15:58:12.773Z,100513.50
2023-04-13T16:00:39.650Z,100513.22
2023-04-13T16:03:07.818Z,100512.72
2023-04-13T16:05:59.783Z,100517.56
2023-04-13T16:08:27.112Z,100514.00
2023-04-13T16:10:54.577Z,100518.66
2023-04-13T16:13:28.313Z,100513.66
2023-04-13T16:16:07.895Z,100520.34
2023-04-13T16:18:36.398Z,100518.69
2023-04-13T16:21:04.400Z,100517.34
2023-04-13T16:23:34.915Z,100516.63
2023-04-13T16:26:09.712Z,100521.06
2023-04-13T16:28:41.192Z,100522.63
2023-04-13T16:31:11.270Z,100517.19
2023-04-13T16:33:39.846Z,100526.25
2023-04-13T16:36:13.887Z,100533.69
2023-04-13T16:38:44.107Z,100537.63
2023-04-13T16:41:13.139Z,100532.19
2023-04-13T16:43:40.025Z,100548.78
2023-04-13T16:46:06.657Z,100552.91
2023-04-13T16:48:36.517Z,100548.81
2023-04-13T16:51:03.628Z,100554.97
2023-04-13T16:53:31.812Z,100559.09
2023-04-13T16:55:59.633Z,100561.16
2023-04-13T16:58:26.831Z,100561.50
2023-04-13T17:00:55.187Z,100557.09
2023-04-13T17:03:25.739Z,100566.81
2023-04-13T17:05:58.545Z,100570.06
2023-04-13T17:08:30.422Z,100576.75
2023-04-13T17:11:19.494Z,100569.22
2023-04-13T17:13:47.356Z,100563.06
2023-04-13T17:16:20.820Z,100583.06
2023-04-13T17:18:47.467Z,100559.44
2023-04-13T17:21:18.843Z,100580.16
2023-04-13T17:23:48.034Z,100583.41
2023-04-13T17:26:20.186Z,100582.38
2023-04-13T17:28:49.237Z,100565.75
2023-04-13T17:31:16.792Z,100574.69
2023-04-13T17:33:45.276Z,100587.47
2023-04-13T17:36:12.301Z,100587.16
2023-04-13T17:38:39.140Z,100597.25
2023-04-13T17:41:07.183Z,100597.59
2023-04-13T17:43:37.697Z,100608.03
2023-04-13T17:46:05.916Z,100606.63
2023-04-13T17:48:33.707Z,100611.75
2023-04-13T17:51:03.650Z,100607.47
2023-04-13T17:53:33.890Z,100607.63
2023-04-13T17:56:00.575Z,100614.41
2023-04-13T17:58:27.265Z,100623.25
2023-04-13T18:00:55.237Z,100636.06
2023-04-13T18:03:24.176Z,100642.16
2023-04-13T18:05:51.856Z,100634.44
2023-04-13T18:08:19.296Z,100641.78
2023-04-13T18:10:49.502Z,100652.72
2023-04-13T18:13:16.995Z,100648.09
2023-04-13T18:15:48.072Z,100663.81
2023-04-13T18:18:15.294Z,100647.31
2023-04-13T18:20:42.125Z,100669.50
2023-04-13T18:23:09.192Z,100671.88
2023-04-13T18:25:35.885Z,100664.16
2023-04-13T18:28:04.689Z,100654.59
2023-04-13T18:30:33.484Z,100668.25
2023-04-13T18:33:00.183Z,100670.59
2023-04-13T18:35:27.644Z,100676.69
2023-04-13T18:37:54.346Z,100681.72
2023-04-13T18:40:21.216Z,100677.16
2023-04-13T18:42:50.789Z,100658.00
2023-04-13T18:45:18.205Z,100685.38
2023-04-13T18:47:47.095Z,100663.16
2023-04-13T18:50:16.391Z,100680.47
2023-04-13T18:52:45.504Z,100695.13
2023-04-13T18:55:12.230Z,100701.22
2023-04-13T18:57:44.143Z,100705.97
2023-04-13T19:00:11.622Z,100706.97
2023-04-13T19:02:39.913Z,100719.03
2023-04-13T19:05:06.891Z,100743.13
2023-04-13T19:07:39.181Z,100798.75
2023-04-13T19:10:06.685Z,100796.47
2023-04-13T19:12:33.531Z,100789.63
2023-04-13T19:15:00.289Z,100792.38
2023-04-13T19:17:28.572Z,100794.84
2023-04-13T19:19:56.037Z,100790.56
2023-04-13T19:22:22.960Z,100784.44
2023-04-13T19:24:49.820Z,100771.28
2023-04-13T19:27:16.702Z,100780.28
2023-04-13T19:29:43.468Z,100792.91
2023-04-13T19:32:12.618Z,100793.75
2023-04-13T19:34:39.357Z,100797.66
2023-04-13T19:37:07.109Z,100794.19
2023-04-13T19:39:34.049Z,100792.00
2023-04-13T19:42:03.058Z,100778.09
2023-04-13T19:44:29.737Z,100810.31
2023-04-13T19:46:56.321Z,100801.44
2023-04-13T19:49:23.020Z,100825.94
2023-04-13T19:51:49.622Z,100811.41
2023-04-13T19:54:16.518Z,100787.78
2023-04-13T19:56:45.762Z,100834.19
2023-04-13T19:59:14.604Z,100825.88
2023-04-13T20:01:41.250Z,100825.00
2023-04-13T20:04:09.076Z,100805.91
2023-04-13T20:06:38.160Z,100832.03
2023-04-13T20:09:12.785Z,100833.34
2023-04-13T20:11:41.801Z,100828.31
2023-04-13T20:14:13.849Z,100825.44
2023-04-13T20:16:40.768Z,100793.09
2023-04-13T20:19:09.994Z,100832.00
2023-04-13T20:21:36.910Z,100818.00
2023-04-13T20:24:08.621Z,100839.44
2023-04-13T20:26:35.247Z,100844.00
2023-04-13T20:29:04.557Z,100844.88
2023-04-13T20:31:32.912Z,100844.94
2023-04-13T20:34:00.062Z,100783.47
2023-04-13T20:36:29.264Z,100829.66
2023-04-13T20:38:59.749Z,100857.00
2023-04-13T20:41:33.906Z,100828.75
2023-04-13T20:44:01.112Z,100834.72
2023-04-13T20:46:37.084Z,100848.41
2023-04-13T20:49:05.506Z,100859.88
2023-04-13T20:51:33.493Z,100864.72
2023-04-13T20:54:03.234Z,100862.53
2023-04-13T20:56:30.355Z,100823.00
2023-04-13T20:59:01.142Z,100854.38
2023-04-13T21:01:32.818Z,100840.84
2023-04-13T21:04:00.004Z,100853.97
2023-04-13T21:06:30.288Z,100856.41
2023-04-13T21:08:59.021Z,100867.28
2023-04-13T21:11:26.271Z,100838.75
2023-04-13T21:13:55.743Z,100869.44
2023-04-13T21:16:25.442Z,100879.16
2023-04-13T21:18:57.202Z,100877.72
2023-04-13T21:21:25.185Z,100807.31
2023-04-13T21:23:53.208Z,100878.47
2023-04-13T21:26:22.507Z,100874.16
2023-04-13T21:28:49.442Z,100868.75
2023-04-13T21:31:16.821Z,100881.22
2023-04-13T21:33:44.062Z,100886.19
2023-04-13T21:38:41.974Z,100874.22
2023-04-13T21:41:19.882Z,100875.00
2023-04-13T21:43:50.085Z,100878.09
2023-04-13T21:46:18.893Z,100880.31
2023-04-13T21:48:46.026Z,100834.97
2023-04-13T21:51:13.077Z,100874.03
2023-04-13T21:53:40.314Z,100883.66
2023-04-13T21:56:07.788Z,100684.28
2023-04-13T21:58:42.245Z,100872.44
2023-04-13T22:01:13.016Z,100823.53
2023-04-13T22:03:48.223Z,100876.13
2023-04-13T22:06:15.144Z,100834.38
2023-04-13T22:08:44.227Z,100877.25
2023-04-13T22:11:13.527Z,100852.97
2023-04-13T22:13:42.462Z,100866.53
2023-04-13T22:16:10.115Z,100883.16
2023-04-13T22:18:37.142Z,100892.50
2023-04-13T22:21:04.020Z,100885.63
2023-04-13T22:23:33.576Z,100873.88
2023-04-13T22:26:03.201Z,100887.59
2023-04-13T22:28:33.855Z,100873.16
2023-04-13T22:31:12.098Z,100891.41
2023-04-13T22:33:40.923Z,100742.28
2023-04-13T22:36:20.148Z,100890.03
2023-04-13T22:38:59.358Z,100803.09
2023-04-13T22:41:26.440Z,100863.16
2023-04-13T22:43:53.305Z,100876.09
2023-04-13T22:46:24.174Z,100891.00
2023-04-13T22:48:53.408Z,100865.31
2023-04-13T22:51:22.674Z,100857.81
2023-04-13T22:53:49.485Z,100899.97
2023-04-13T22:56:16.686Z,100896.75
2023-04-13T22:58:43.614Z,100873.66
2023-04-13T23:01:10.356Z,100904.34
2023-04-13T23:03:37.319Z,100859.34
2023-04-13T23:06:07.419Z,100892.78
2023-04-13T23:08:34.670Z,100883.72
2023-04-13T23:11:11.004Z,100890.78
2023-04-13T23:13:37.995Z,100881.75
2023-04-13T23:16:08.664Z,100899.47
2023-04-13T23:18:35.974Z,100883.41
2023-04-13T23:21:14.698Z,100867.25
2023-04-13T23:23:43.903Z,100887.19
2023-04-13T23:26:13.321Z,100901.22
2023-04-13T23:28:43.864Z,100904.03
2023-04-13T23:31:17.409Z,100901.06
2023-04-13T23:33:54.905Z,100906.56
2023-04-13T23:36:27.807Z,100917.13
2023-04-13T23:38:57.411Z,100896.09
2023-04-13T23:41:27.534Z,100910.84
2023-04-13T23:43:55.628Z,100908.63
2023-04-13T23:46:25.557Z,100875.81
2023-04-13T23:48:54.666Z,100887.38
2023-04-13T23:51:31.313Z,100901.09
2023-04-13T23:53:58.708Z,100891.94
2023-04-13T23:56:34.325Z,100915.13
2023-04-13T23:59:01.952Z,100909.81
